createdAt,value
2019-03-06T00:00:56.855Z,0.93
2019-03-06T00:01:46.496Z,0.90
2019-03-06T00:02:36.334Z,0.45
2019-03-06T00:03:25.643Z,0.88
2019-03-06T00:04:15.343Z,2.00
2019-03-06T00:05:05.703Z,2.55
2019-03-06T00:05:55.840Z,0.90
2019-03-06T00:06:45.899Z,1.00
2019-03-06T00:07:35.922Z,0.70
2019-03-06T00:08:25.871Z,0.60
2019-03-06T00:09:15.833Z,0.60
2019-03-06T00:10:18.643Z,0.60
2019-03-06T00:11:09.380Z,0.57
2019-03-06T00:11:59.067Z,0.60
2019-03-06T00:12:50.247Z,0.70
2019-03-06T00:13:39.903Z,0.60
2019-03-06T00:14:29.701Z,0.60
2019-03-06T00:15:19.715Z,0.80
2019-03-06T00:16:10.636Z,0.80
2019-03-06T00:17:00.267Z,0.70
2019-03-06T00:17:50.513Z,0.72
2019-03-06T00:18:40.332Z,0.70
2019-03-06T00:19:31.045Z,0.70
2019-03-06T00:20:20.831Z,0.65
2019-03-06T00:21:11.402Z,0.93
2019-03-06T00:22:00.982Z,0.80
2019-03-06T00:22:50.520Z,0.80
2019-03-06T00:23:40.923Z,0.80
2019-03-06T00:24:31.179Z,0.65
2019-03-06T00:25:21.836Z,0.60
2019-03-06T00:26:13.142Z,0.70
2019-03-06T00:27:02.767Z,0.70
2019-03-06T00:27:53.513Z,0.57
2019-03-06T00:28:43.132Z,0.70
2019-03-06T00:29:32.902Z,0.70
2019-03-06T00:30:22.776Z,0.62
2019-03-06T00:31:12.862Z,0.70
2019-03-06T00:32:02.621Z,0.80
2019-03-06T00:32:52.668Z,0.80
2019-03-06T00:33:43.025Z,0.70
2019-03-06T00:34:33.212Z,1.67
2019-03-06T00:35:26.072Z,0.82
2019-03-06T00:36:19.689Z,2.27
2019-03-06T00:37:09.845Z,1.47
2019-03-06T00:37:59.490Z,1.30
2019-03-06T00:38:50.357Z,1.05
2019-03-06T00:39:56.321Z,0.90
2019-03-06T00:41:06.329Z,0.78
2019-03-06T00:41:55.957Z,0.65
2019-03-06T00:42:48.400Z,0.60
2019-03-06T00:43:39.060Z,0.70
2019-03-06T00:44:28.639Z,0.57
2019-03-06T00:45:18.222Z,1.10
2019-03-06T00:46:07.767Z,1.30
2019-03-06T00:46:57.730Z,0.80
2019-03-06T00:47:47.348Z,0.80
2019-03-06T00:48:37.140Z,0.88
2019-03-06T00:49:26.936Z,0.80
2019-03-06T00:50:16.877Z,0.70
2019-03-06T00:51:06.275Z,0.60
2019-03-06T00:51:57.375Z,0.80
2019-03-06T00:52:46.801Z,0.75
2019-03-06T00:53:36.867Z,0.65
2019-03-06T00:54:26.555Z,0.98
2019-03-06T00:55:16.128Z,0.72
2019-03-06T00:56:06.037Z,0.65
2019-03-06T00:56:55.851Z,0.72
2019-03-06T00:57:45.608Z,0.80
2019-03-06T00:58:35.647Z,0.75
2019-03-06T00:59:25.384Z,0.80
2019-03-06T01:00:15.837Z,1.00
2019-03-06T01:01:05.332Z,0.85
2019-03-06T01:01:54.997Z,0.90
2019-03-06T01:02:45.403Z,1.40
2019-03-06T01:03:34.900Z,1.17
2019-03-06T01:04:25.107Z,1.10
2019-03-06T01:05:15.070Z,0.93
2019-03-06T01:06:05.370Z,1.00
2019-03-06T01:06:55.322Z,1.12
2019-03-06T01:07:44.873Z,1.10
2019-03-06T01:08:34.602Z,1.10
2019-03-06T01:09:24.772Z,1.25
2019-03-06T01:10:15.869Z,1.32
2019-03-06T01:11:05.670Z,1.40
2019-03-06T01:11:55.553Z,1.40
2019-03-06T01:12:46.115Z,1.40
2019-03-06T01:13:35.873Z,1.45
2019-03-06T01:14:27.332Z,1.60
2019-03-06T01:15:17.271Z,1.40
2019-03-06T01:16:06.688Z,1.60
2019-03-06T01:16:56.766Z,1.50
2019-03-06T01:17:46.694Z,1.80
2019-03-06T01:18:36.264Z,1.70
2019-03-06T01:19:26.684Z,1.60
2019-03-06T01:20:18.020Z,1.37
2019-03-06T01:21:08.544Z,1.75
2019-03-06T01:21:58.340Z,1.30
2019-03-06T01:22:48.284Z,1.50
2019-03-06T01:23:37.908Z,1.10
2019-03-06T01:24:28.260Z,1.20
2019-03-06T01:25:18.336Z,1.30
2019-03-06T01:26:07.754Z,1.65
2019-03-06T01:26:57.270Z,3.00
2019-03-06T01:27:47.184Z,2.30
2019-03-06T01:28:36.620Z,1.70
2019-03-06T01:29:28.521Z,1.30
2019-03-06T01:30:18.230Z,1.52
2019-03-06T01:31:07.863Z,1.37
2019-03-06T01:31:57.782Z,2.22
2019-03-06T01:32:49.408Z,2.35
2019-03-06T01:33:46.679Z,2.15
2019-03-06T01:34:58.928Z,2.20
2019-03-06T01:36:17.608Z,1.60
2019-03-06T01:37:21.977Z,1.40
2019-03-06T01:38:31.591Z,1.32
2019-03-06T01:39:32.670Z,1.50
2019-03-06T01:40:30.125Z,1.40
2019-03-06T01:41:31.801Z,1.72
2019-03-06T01:42:41.402Z,1.50
2019-03-06T01:43:39.386Z,1.67
2019-03-06T01:44:51.464Z,1.50
2019-03-06T01:45:41.872Z,1.45
2019-03-06T01:46:31.381Z,1.60
2019-03-06T01:47:21.122Z,1.52
2019-03-06T01:48:11.322Z,1.27
2019-03-06T01:49:01.283Z,1.47
2019-03-06T01:49:50.945Z,1.55
2019-03-06T01:50:41.754Z,1.50
2019-03-06T01:51:31.559Z,1.50
2019-03-06T01:52:21.671Z,1.40
2019-03-06T01:53:11.594Z,1.50
2019-03-06T01:54:01.145Z,1.70
2019-03-06T01:54:51.264Z,1.80
2019-03-06T01:55:40.896Z,1.60
2019-03-06T01:56:30.697Z,1.62
2019-03-06T01:57:20.713Z,1.40
2019-03-06T01:58:10.765Z,1.42
2019-03-06T01:59:00.568Z,1.82
2019-03-06T01:59:50.204Z,1.62
2019-03-06T02:00:40.309Z,1.77
2019-03-06T02:01:30.115Z,1.57
2019-03-06T02:02:20.240Z,1.82
2019-03-06T02:03:09.906Z,1.95
2019-03-06T02:03:59.703Z,2.15
2019-03-06T02:04:49.538Z,1.80
2019-03-06T02:05:39.448Z,1.80
2019-03-06T02:06:29.264Z,1.77
2019-03-06T02:07:18.731Z,1.95
2019-03-06T02:08:08.244Z,1.70
2019-03-06T02:08:58.202Z,1.62
2019-03-06T02:09:48.821Z,1.90
2019-03-06T02:10:38.545Z,1.80
2019-03-06T02:11:28.350Z,1.80
2019-03-06T02:12:18.117Z,1.82
2019-03-06T02:13:07.614Z,2.05
2019-03-06T02:13:57.941Z,1.85
2019-03-06T02:14:48.201Z,1.70
2019-03-06T02:15:37.755Z,1.90
2019-03-06T02:16:27.500Z,1.90
2019-03-06T02:17:16.886Z,1.77
2019-03-06T02:18:07.758Z,1.90
2019-03-06T02:18:57.796Z,2.02
2019-03-06T02:19:47.786Z,2.00
2019-03-06T02:20:37.236Z,1.72
2019-03-06T02:21:26.996Z,1.80
2019-03-06T02:22:16.675Z,2.00
2019-03-06T02:23:06.827Z,2.67
2019-03-06T02:23:56.612Z,2.20
2019-03-06T02:24:46.109Z,2.08
2019-03-06T02:25:35.639Z,1.80
2019-03-06T02:26:26.974Z,2.00
2019-03-06T02:27:16.617Z,2.20
2019-03-06T02:28:06.867Z,2.08
2019-03-06T02:28:56.585Z,2.30
2019-03-06T02:29:46.157Z,2.17
2019-03-06T02:30:35.487Z,2.37
2019-03-06T02:31:25.987Z,2.17
2019-03-06T02:32:16.042Z,2.30
2019-03-06T02:33:05.767Z,3.22
2019-03-06T02:33:55.273Z,2.50
2019-03-06T02:34:44.852Z,2.67
2019-03-06T02:35:34.619Z,2.47
2019-03-06T02:36:24.976Z,2.52
2019-03-06T02:37:14.591Z,1.80
2019-03-06T02:38:04.233Z,1.85
2019-03-06T02:38:53.977Z,1.87
2019-03-06T02:39:44.092Z,1.70
2019-03-06T02:40:33.959Z,1.57
2019-03-06T02:41:23.744Z,2.00
2019-03-06T02:42:13.535Z,1.60
2019-03-06T02:43:04.029Z,1.80
2019-03-06T02:43:55.091Z,1.70
2019-03-06T02:44:44.781Z,1.70
2019-03-06T02:45:35.847Z,1.52
2019-03-06T02:46:25.931Z,1.85
2019-03-06T02:47:16.272Z,2.00
2019-03-06T02:48:06.628Z,1.67
2019-03-06T02:48:56.808Z,1.67
2019-03-06T02:49:46.557Z,1.60
2019-03-06T02:50:36.134Z,1.50
2019-03-06T02:51:26.104Z,1.80
2019-03-06T02:52:15.895Z,1.55
2019-03-06T02:53:05.914Z,1.60
2019-03-06T02:53:55.523Z,1.57
2019-03-06T02:54:45.199Z,1.70
2019-03-06T02:55:34.829Z,1.50
2019-03-06T02:56:24.770Z,1.60
2019-03-06T02:57:14.355Z,1.42
2019-03-06T02:58:12.329Z,1.40
2019-03-06T02:59:27.800Z,1.65
2019-03-06T03:00:36.413Z,1.80
2019-03-06T03:01:51.537Z,1.70
2019-03-06T03:02:50.356Z,1.70
2019-03-06T03:04:05.768Z,1.50
2019-03-06T03:05:04.611Z,1.67
2019-03-06T03:05:59.434Z,1.60
2019-03-06T03:06:52.624Z,1.90
2019-03-06T03:07:42.972Z,1.75
2019-03-06T03:08:32.925Z,1.57
2019-03-06T03:09:23.643Z,1.70
2019-03-06T03:10:14.085Z,1.70
2019-03-06T03:11:03.838Z,1.65
2019-03-06T03:11:53.323Z,2.10
2019-03-06T03:12:43.711Z,2.90
2019-03-06T03:13:34.094Z,2.33
2019-03-06T03:14:24.642Z,2.12
2019-03-06T03:15:15.307Z,2.37
2019-03-06T03:16:05.221Z,2.27
2019-03-06T03:16:54.773Z,1.92
2019-03-06T03:17:44.911Z,1.65
2019-03-06T03:18:35.829Z,2.10
2019-03-06T03:19:25.639Z,2.27
2019-03-06T03:20:15.872Z,2.08
2019-03-06T03:21:05.978Z,1.87
2019-03-06T03:21:56.019Z,2.00
2019-03-06T03:22:46.909Z,2.70
2019-03-06T03:23:36.532Z,2.20
2019-03-06T03:24:26.435Z,2.10
2019-03-06T03:25:16.453Z,2.10
2019-03-06T03:26:06.498Z,2.20
2019-03-06T03:26:56.166Z,2.00
2019-03-06T03:27:45.847Z,2.30
2019-03-06T03:28:36.564Z,2.25
2019-03-06T03:29:26.242Z,2.30
2019-03-06T03:30:16.309Z,2.20
2019-03-06T03:31:06.651Z,2.17
2019-03-06T03:31:56.013Z,2.17
2019-03-06T03:32:45.546Z,1.90
2019-03-06T03:33:34.965Z,2.00
2019-03-06T03:34:24.718Z,2.00
2019-03-06T03:35:14.492Z,2.70
2019-03-06T03:36:04.052Z,2.72
2019-03-06T03:36:53.631Z,2.47
2019-03-06T03:37:43.218Z,2.17
2019-03-06T03:38:33.411Z,3.37
2019-03-06T03:39:23.045Z,2.77
2019-03-06T03:40:12.767Z,2.40
2019-03-06T03:41:03.044Z,2.20
2019-03-06T03:41:52.896Z,2.02
2019-03-06T03:42:43.170Z,2.20
2019-03-06T03:43:33.195Z,2.92
2019-03-06T03:44:22.722Z,3.08
2019-03-06T03:45:12.837Z,2.60
2019-03-06T03:46:02.352Z,2.60
2019-03-06T03:46:51.894Z,2.50
2019-03-06T03:47:44.006Z,2.55
2019-03-06T03:48:33.809Z,2.30
2019-03-06T03:49:23.814Z,2.25
2019-03-06T03:50:13.997Z,2.10
2019-03-06T03:51:03.840Z,1.80
2019-03-06T03:51:53.565Z,1.80
2019-03-06T03:52:43.557Z,2.12
2019-03-06T03:53:33.738Z,2.00
2019-03-06T03:54:25.820Z,1.90
2019-03-06T03:55:15.816Z,2.00
2019-03-06T03:56:08.874Z,1.72
2019-03-06T03:56:58.657Z,2.30
2019-03-06T03:57:48.302Z,1.60
2019-03-06T03:58:38.610Z,1.72
2019-03-06T03:59:28.587Z,1.40
2019-03-06T04:00:18.262Z,1.95
2019-03-06T04:01:08.167Z,1.90
2019-03-06T04:01:58.088Z,1.82
2019-03-06T04:02:47.923Z,1.40
2019-03-06T04:03:37.813Z,1.50
2019-03-06T04:04:27.363Z,1.72
2019-03-06T04:05:16.864Z,1.87
2019-03-06T04:06:06.433Z,1.45
2019-03-06T04:06:56.441Z,1.40
2019-03-06T04:07:46.209Z,3.45
2019-03-06T04:08:35.777Z,2.10
2019-03-06T04:09:25.670Z,2.05
2019-03-06T04:10:15.326Z,2.30
2019-03-06T04:11:05.098Z,2.37
2019-03-06T04:11:54.892Z,2.17
2019-03-06T04:12:44.705Z,2.40
2019-03-06T04:13:34.252Z,2.15
2019-03-06T04:14:24.100Z,2.10
2019-03-06T04:15:14.728Z,1.82
2019-03-06T04:16:04.747Z,1.90
2019-03-06T04:16:54.886Z,2.10
2019-03-06T04:17:45.603Z,2.50
2019-03-06T04:18:35.314Z,3.00
2019-03-06T04:19:25.552Z,2.52
2019-03-06T04:20:16.445Z,2.37
2019-03-06T04:21:05.973Z,2.33
2019-03-06T04:21:55.532Z,2.20
2019-03-06T04:22:45.716Z,2.15
2019-03-06T04:23:35.411Z,2.17
2019-03-06T04:24:25.602Z,2.02
2019-03-06T04:25:15.101Z,1.95
2019-03-06T04:26:04.958Z,2.50
2019-03-06T04:26:55.007Z,2.17
2019-03-06T04:27:44.701Z,2.02
2019-03-06T04:28:34.386Z,1.90
2019-03-06T04:29:24.437Z,1.70
2019-03-06T04:30:14.251Z,1.75
2019-03-06T04:31:03.842Z,1.90
2019-03-06T04:31:53.672Z,2.58
2019-03-06T04:32:43.605Z,1.60
2019-03-06T04:33:33.654Z,1.80
2019-03-06T04:34:23.251Z,1.90
2019-03-06T04:35:12.853Z,2.30
2019-03-06T04:36:02.752Z,2.00
2019-03-06T04:36:52.731Z,1.60
2019-03-06T04:37:42.254Z,1.65
2019-03-06T04:38:32.082Z,1.70
2019-03-06T04:39:22.075Z,2.27
2019-03-06T04:40:11.965Z,1.90
2019-03-06T04:41:01.649Z,2.33
2019-03-06T04:41:51.616Z,2.83
2019-03-06T04:42:41.555Z,2.40
2019-03-06T04:43:31.384Z,1.60
2019-03-06T04:44:20.779Z,1.90
2019-03-06T04:45:11.148Z,1.67
2019-03-06T04:46:01.184Z,1.60
2019-03-06T04:46:50.973Z,2.05
2019-03-06T04:47:40.471Z,1.90
2019-03-06T04:48:30.064Z,2.20
2019-03-06T04:49:19.731Z,1.98
2019-03-06T04:50:09.638Z,2.42
2019-03-06T04:51:00.534Z,3.05
2019-03-06T04:51:50.355Z,1.90
2019-03-06T04:52:39.915Z,2.05
2019-03-06T04:53:29.525Z,2.05
2019-03-06T04:54:19.543Z,2.10
2019-03-06T04:55:09.933Z,2.10
2019-03-06T04:56:00.091Z,1.95
2019-03-06T04:56:49.666Z,1.60
2019-03-06T04:57:39.678Z,1.75
2019-03-06T04:58:29.841Z,1.90
2019-03-06T04:59:19.895Z,2.08
2019-03-06T05:00:10.462Z,1.90
2019-03-06T05:01:00.701Z,1.80
2019-03-06T05:01:50.510Z,2.12
2019-03-06T05:02:40.219Z,3.33
2019-03-06T05:03:30.530Z,3.83
2019-03-06T05:04:20.934Z,3.40
2019-03-06T05:05:10.448Z,2.12
2019-03-06T05:06:00.090Z,2.52
2019-03-06T05:06:50.092Z,2.08
2019-03-06T05:07:40.133Z,2.10
2019-03-06T05:08:30.578Z,1.95
2019-03-06T05:09:20.459Z,2.00
2019-03-06T05:10:10.192Z,1.85
2019-03-06T05:11:00.925Z,1.82
2019-03-06T05:11:50.578Z,2.00
2019-03-06T05:12:41.006Z,1.90
2019-03-06T05:13:30.723Z,1.80
2019-03-06T05:14:20.441Z,2.05
2019-03-06T05:15:09.967Z,2.45
2019-03-06T05:16:00.288Z,2.05
2019-03-06T05:17:08.196Z,2.00
2019-03-06T05:18:26.724Z,1.92
2019-03-06T05:19:16.716Z,2.02
2019-03-06T05:20:07.262Z,1.80
2019-03-06T05:20:57.351Z,2.05
2019-03-06T05:21:47.155Z,1.82
2019-03-06T05:22:37.643Z,2.15
2019-03-06T05:23:30.509Z,2.10
2019-03-06T05:24:20.331Z,2.00
2019-03-06T05:25:10.615Z,1.82
2019-03-06T05:26:00.903Z,1.90
2019-03-06T05:26:50.557Z,1.80
2019-03-06T05:27:40.750Z,1.60
2019-03-06T05:28:30.497Z,1.80
2019-03-06T05:29:20.412Z,1.60
2019-03-06T05:30:10.314Z,1.62
2019-03-06T05:31:00.030Z,1.65
2019-03-06T05:32:07.945Z,1.82
2019-03-06T05:32:58.256Z,3.60
2019-03-06T05:33:47.954Z,3.60
2019-03-06T05:34:38.023Z,5.72
2019-03-06T05:35:47.344Z,3.27
2019-03-06T05:36:45.275Z,2.40
2019-03-06T05:38:01.454Z,2.12
2019-03-06T05:39:10.608Z,1.90
2019-03-06T05:40:00.280Z,1.50
2019-03-06T05:40:49.823Z,1.95
2019-03-06T05:41:40.278Z,1.80
2019-03-06T05:42:30.515Z,2.20
2019-03-06T05:43:20.343Z,2.02
2019-03-06T05:44:10.650Z,2.12
2019-03-06T05:45:00.563Z,2.35
2019-03-06T05:45:50.903Z,2.12
2019-03-06T05:46:41.163Z,2.58
2019-03-06T05:47:31.357Z,2.52
2019-03-06T05:48:21.749Z,2.98
2019-03-06T05:49:11.753Z,2.58
2019-03-06T05:50:01.493Z,2.10
2019-03-06T05:50:51.100Z,2.30
2019-03-06T05:51:41.317Z,2.10
2019-03-06T05:52:31.469Z,2.00
2019-03-06T05:53:21.053Z,2.10
2019-03-06T05:54:10.778Z,2.30
2019-03-06T05:55:00.392Z,2.30
2019-03-06T05:55:50.488Z,2.33
2019-03-06T05:56:40.964Z,2.17
2019-03-06T05:57:31.103Z,2.90
2019-03-06T05:58:20.754Z,3.40
2019-03-06T05:59:10.584Z,5.37
2019-03-06T06:00:01.261Z,4.80
2019-03-06T06:00:50.994Z,3.95
2019-03-06T06:01:41.132Z,2.17
2019-03-06T06:02:31.138Z,2.30
2019-03-06T06:03:21.016Z,2.30
2019-03-06T06:04:10.934Z,2.10
2019-03-06T06:05:00.525Z,3.20
2019-03-06T06:05:50.078Z,3.27
2019-03-06T06:06:40.895Z,3.30
2019-03-06T06:07:31.179Z,3.27
2019-03-06T06:08:21.727Z,3.25
2019-03-06T06:09:11.279Z,2.52
2019-03-06T06:10:01.012Z,9.58
2019-03-06T06:10:50.511Z,13.55
2019-03-06T06:11:40.277Z,9.30
2019-03-06T06:12:31.199Z,7.80
2019-03-06T06:13:21.288Z,7.25
2019-03-06T06:14:11.277Z,7.83
2019-03-06T06:15:01.029Z,9.70
2019-03-06T06:15:50.545Z,6.70
2019-03-06T06:16:40.913Z,5.50
2019-03-06T06:17:31.275Z,5.33
2019-03-06T06:18:21.224Z,5.10
2019-03-06T06:19:10.890Z,5.53
2019-03-06T06:20:00.417Z,5.20
2019-03-06T06:20:56.765Z,4.58
2019-03-06T06:22:05.140Z,5.25
2019-03-06T06:23:13.597Z,4.22
2019-03-06T06:24:10.068Z,4.00
2019-03-06T06:25:00.179Z,4.05
2019-03-06T06:25:49.820Z,3.95
2019-03-06T06:26:39.617Z,4.78
2019-03-06T06:27:29.538Z,4.60
2019-03-06T06:28:19.196Z,5.20
2019-03-06T06:29:08.829Z,5.75
2019-03-06T06:29:58.745Z,5.40
2019-03-06T06:30:48.443Z,5.87
2019-03-06T06:31:38.482Z,5.87
2019-03-06T06:32:28.036Z,6.53
2019-03-06T06:33:17.631Z,6.45
2019-03-06T06:34:07.833Z,4.70
2019-03-06T06:34:58.041Z,5.67
2019-03-06T06:35:48.300Z,4.47
2019-03-06T06:36:38.351Z,5.28
2019-03-06T06:37:28.722Z,4.72
2019-03-06T06:38:18.276Z,4.90
2019-03-06T06:39:07.859Z,4.95
2019-03-06T06:39:58.402Z,5.20
2019-03-06T06:40:47.922Z,5.17
2019-03-06T06:41:38.956Z,4.70
2019-03-06T06:42:29.871Z,4.10
2019-03-06T06:43:19.332Z,4.78
2019-03-06T06:44:09.232Z,4.53
2019-03-06T06:45:00.050Z,4.80
2019-03-06T06:45:50.227Z,4.22
2019-03-06T06:46:41.023Z,4.12
2019-03-06T06:47:30.651Z,4.45
2019-03-06T06:48:20.680Z,5.15
2019-03-06T06:49:10.388Z,4.10
2019-03-06T06:50:00.924Z,4.17
2019-03-06T06:51:01.537Z,4.15
2019-03-06T06:52:08.071Z,4.05
2019-03-06T06:53:27.418Z,3.67
2019-03-06T06:54:21.013Z,4.03
2019-03-06T06:55:29.199Z,4.03
2019-03-06T06:56:41.983Z,3.20
2019-03-06T06:57:51.652Z,3.90
2019-03-06T06:58:43.915Z,2.98
2019-03-06T06:59:37.445Z,5.10
2019-03-06T07:01:08.870Z,5.45
2019-03-06T07:02:44.971Z,6.87
2019-03-06T07:04:21.733Z,2.70
2019-03-06T07:05:23.372Z,2.12
2019-03-06T07:06:23.812Z,2.10
2019-03-06T07:07:30.736Z,1.80
2019-03-06T07:08:28.295Z,2.00
2019-03-06T07:09:43.879Z,1.77
2019-03-06T07:11:02.906Z,2.20
2019-03-06T07:12:15.806Z,2.10
2019-03-06T07:13:11.515Z,1.90
2019-03-06T07:14:29.671Z,2.00
2019-03-06T07:15:44.619Z,1.87
2019-03-06T07:17:06.034Z,2.10
2019-03-06T07:18:18.035Z,2.30
2019-03-06T07:19:17.993Z,2.62
2019-03-06T07:20:27.762Z,2.90
2019-03-06T07:21:25.625Z,2.30
2019-03-06T07:22:31.981Z,2.42
2019-03-06T07:23:41.367Z,2.25
2019-03-06T07:24:48.239Z,2.40
2019-03-06T07:26:00.828Z,2.40
2019-03-06T07:27:29.191Z,2.15
2019-03-06T07:28:38.319Z,2.08
2019-03-06T07:29:56.883Z,2.47
2019-03-06T07:31:09.043Z,2.75
2019-03-06T07:32:23.986Z,2.58
2019-03-06T07:33:45.990Z,2.37
2019-03-06T07:34:56.324Z,2.22
2019-03-06T07:36:12.684Z,2.10
2019-03-06T07:37:09.211Z,2.35
2019-03-06T07:38:02.988Z,2.10
2019-03-06T07:38:58.711Z,2.30
2019-03-06T07:39:52.587Z,2.47
2019-03-06T07:41:00.886Z,2.72
2019-03-06T07:42:10.560Z,3.02
2019-03-06T07:43:12.207Z,4.87
2019-03-06T07:44:30.767Z,3.35
2019-03-06T07:45:58.953Z,3.02
2019-03-06T07:47:11.935Z,1.60
2019-03-06T07:48:26.310Z,1.67
2019-03-06T07:49:51.080Z,2.00
2019-03-06T07:50:51.685Z,1.95
2019-03-06T07:51:52.879Z,2.45
2019-03-06T07:53:00.640Z,2.15
2019-03-06T07:53:56.189Z,2.00
2019-03-06T07:55:11.444Z,1.60
2019-03-06T07:56:20.865Z,1.40
2019-03-06T07:57:37.141Z,1.25
2019-03-06T07:59:04.891Z,1.52
2019-03-06T07:59:55.284Z,1.20
2019-03-06T08:00:45.980Z,1.02
2019-03-06T08:01:40.810Z,1.17
2019-03-06T08:02:38.433Z,1.10
2019-03-06T08:03:30.443Z,1.15
2019-03-06T08:04:20.181Z,1.00
2019-03-06T08:05:10.202Z,1.30
2019-03-06T08:05:59.960Z,1.20
2019-03-06T08:06:52.394Z,1.37
2019-03-06T08:07:42.844Z,1.20
2019-03-06T08:08:34.242Z,1.20
2019-03-06T08:09:24.105Z,1.20
2019-03-06T08:10:14.000Z,1.30
2019-03-06T08:11:06.106Z,1.30
2019-03-06T08:12:24.466Z,1.20
2019-03-06T08:13:20.696Z,1.10
2019-03-06T08:14:33.161Z,1.25
2019-03-06T08:15:42.512Z,1.25
2019-03-06T08:16:46.765Z,1.30
2019-03-06T08:17:50.056Z,1.15
2019-03-06T08:18:52.016Z,1.10
2019-03-06T08:20:16.656Z,1.00
2019-03-06T08:21:25.062Z,1.00
2019-03-06T08:22:38.838Z,0.93
2019-03-06T08:24:06.676Z,0.93
2019-03-06T08:25:08.346Z,1.20
2019-03-06T08:26:00.762Z,0.95
2019-03-06T08:26:50.918Z,1.00
2019-03-06T08:27:40.643Z,0.80
2019-03-06T08:28:31.335Z,1.00
2019-03-06T08:29:20.875Z,0.95
2019-03-06T08:30:10.887Z,1.10
2019-03-06T08:31:27.682Z,1.10
2019-03-06T08:32:25.655Z,0.82
2019-03-06T08:33:18.421Z,1.00
2019-03-06T08:34:05.435Z,1.37
2019-03-06T08:34:55.686Z,1.50
2019-03-06T08:35:45.819Z,1.60
2019-03-06T08:36:35.782Z,1.65
2019-03-06T08:37:25.401Z,1.60
2019-03-06T08:38:15.417Z,1.60
2019-03-06T08:39:10.621Z,1.40
2019-03-06T08:40:00.318Z,1.50
2019-03-06T08:40:49.813Z,1.50
2019-03-06T08:41:41.348Z,1.52
2019-03-06T08:42:32.659Z,1.50
2019-03-06T08:43:20.871Z,1.50
2019-03-06T08:44:10.860Z,1.30
2019-03-06T08:45:00.569Z,1.47
2019-03-06T08:46:19.672Z,1.50
2019-03-06T08:47:35.232Z,1.22
2019-03-06T08:48:46.082Z,1.00
2019-03-06T08:50:01.330Z,1.12
2019-03-06T08:51:16.311Z,1.32
2019-03-06T08:52:26.642Z,1.80
2019-03-06T08:53:23.906Z,1.77
2019-03-06T08:54:29.164Z,1.62
2019-03-06T08:55:44.490Z,1.40
2019-03-06T08:56:54.614Z,1.50
2019-03-06T08:58:06.688Z,1.57
2019-03-06T08:59:16.283Z,1.75
2019-03-06T09:00:27.004Z,1.20
2019-03-06T09:02:00.473Z,1.67
2019-03-06T09:03:05.027Z,1.70
2019-03-06T09:04:14.344Z,1.67
2019-03-06T09:05:19.032Z,1.40
2019-03-06T09:06:27.760Z,1.57
2019-03-06T09:07:27.983Z,1.40
2019-03-06T09:08:39.200Z,1.50
2019-03-06T09:09:46.871Z,1.50
2019-03-06T09:11:03.334Z,1.60
2019-03-06T09:12:30.778Z,1.20
2019-03-06T09:13:59.531Z,1.40
2019-03-06T09:15:11.787Z,1.50
2019-03-06T09:16:28.251Z,1.50
2019-03-06T09:17:40.511Z,1.50
2019-03-06T09:18:42.996Z,1.45
2019-03-06T09:19:51.085Z,1.60
2019-03-06T09:20:59.167Z,1.40
2019-03-06T09:22:04.210Z,1.77
2019-03-06T09:23:23.180Z,1.72
2019-03-06T09:24:30.311Z,1.47
2019-03-06T09:25:33.549Z,1.32
2019-03-06T09:26:41.759Z,2.12
2019-03-06T09:27:50.781Z,1.45
2019-03-06T09:29:03.435Z,1.42
2019-03-06T09:30:02.101Z,1.50
2019-03-06T09:31:01.815Z,1.22
2019-03-06T09:32:09.848Z,1.30
2019-03-06T09:33:04.857Z,1.40
2019-03-06T09:34:07.333Z,1.30
2019-03-06T09:35:26.261Z,1.32
2019-03-06T09:36:30.837Z,1.17
2019-03-06T09:37:38.891Z,1.32
2019-03-06T09:39:00.579Z,1.27
2019-03-06T09:40:01.325Z,1.40
2019-03-06T09:41:10.584Z,1.30
2019-03-06T09:42:18.574Z,1.30
2019-03-06T09:43:26.886Z,1.22
2019-03-06T09:44:42.510Z,1.30
2019-03-06T09:45:48.826Z,1.00
2019-03-06T09:46:54.077Z,1.40
2019-03-06T09:47:52.555Z,1.30
2019-03-06T09:48:49.088Z,1.10
2019-03-06T09:49:58.591Z,1.30
2019-03-06T09:51:03.055Z,1.05
2019-03-06T09:52:15.327Z,1.00
2019-03-06T09:53:30.430Z,0.82
2019-03-06T09:54:42.652Z,0.80
2019-03-06T09:55:52.037Z,1.00
2019-03-06T09:57:10.847Z,1.00
2019-03-06T09:58:19.424Z,0.90
2019-03-06T09:59:22.154Z,0.90
2019-03-06T10:00:24.946Z,0.70
2019-03-06T10:01:37.783Z,0.90
2019-03-06T10:02:45.846Z,0.53
2019-03-06T10:03:54.143Z,0.62
2019-03-06T10:05:00.468Z,0.50
2019-03-06T10:06:28.106Z,0.65
2019-03-06T10:07:36.519Z,0.70
2019-03-06T10:08:39.339Z,0.60
2019-03-06T10:09:58.856Z,0.50
2019-03-06T10:10:59.221Z,0.70
2019-03-06T10:12:05.505Z,0.70
2019-03-06T10:13:15.314Z,0.65
2019-03-06T10:14:30.313Z,0.70
2019-03-06T10:15:35.871Z,0.57
2019-03-06T10:16:38.122Z,0.47
2019-03-06T10:17:40.935Z,0.82
2019-03-06T10:18:48.932Z,0.50
2019-03-06T10:19:46.570Z,0.70
2019-03-06T10:20:36.016Z,0.50
2019-03-06T10:21:26.138Z,0.57
2019-03-06T10:22:16.139Z,0.62
2019-03-06T10:23:08.331Z,0.53
2019-03-06T10:23:56.131Z,0.50
2019-03-06T10:24:45.620Z,0.40
2019-03-06T10:25:36.895Z,0.57
2019-03-06T10:26:28.862Z,0.53
2019-03-06T10:27:16.770Z,0.30
2019-03-06T10:28:07.035Z,0.40
2019-03-06T10:28:56.534Z,0.60
2019-03-06T10:29:46.664Z,0.70
2019-03-06T10:30:36.794Z,0.50
2019-03-06T10:31:27.052Z,0.70
2019-03-06T10:32:17.399Z,0.60
2019-03-06T10:33:07.170Z,0.78
2019-03-06T10:33:58.069Z,0.70
2019-03-06T10:34:48.213Z,0.85
2019-03-06T10:35:37.923Z,0.60
2019-03-06T10:36:28.798Z,0.50
2019-03-06T10:37:18.987Z,0.53
2019-03-06T10:38:16.433Z,0.90
2019-03-06T10:38:58.816Z,0.80
2019-03-06T10:39:48.589Z,0.80
2019-03-06T10:40:38.296Z,0.60
2019-03-06T10:41:28.150Z,0.50
2019-03-06T10:42:18.359Z,0.60
2019-03-06T10:43:08.177Z,1.02
2019-03-06T10:43:58.287Z,0.70
2019-03-06T10:44:49.341Z,0.60
2019-03-06T10:45:42.019Z,0.50
2019-03-06T10:46:28.098Z,0.55
2019-03-06T10:47:17.703Z,0.60
2019-03-06T10:48:08.221Z,0.50
2019-03-06T10:48:58.457Z,0.60
2019-03-06T10:49:48.258Z,0.68
2019-03-06T10:50:38.140Z,0.70
2019-03-06T10:51:27.760Z,0.50
2019-03-06T10:52:17.496Z,0.68
2019-03-06T10:53:07.044Z,0.62
2019-03-06T10:53:57.052Z,0.40
2019-03-06T10:54:47.095Z,0.50
2019-03-06T10:55:36.772Z,0.40
2019-03-06T10:56:26.330Z,0.50
2019-03-06T10:57:16.336Z,0.50
2019-03-06T10:58:05.954Z,0.50
2019-03-06T10:58:55.742Z,0.60
2019-03-06T10:59:45.690Z,0.60
2019-03-06T11:00:37.363Z,0.65
2019-03-06T11:01:27.401Z,0.53
2019-03-06T11:02:17.299Z,0.70
2019-03-06T11:03:07.532Z,0.60
2019-03-06T11:04:35.218Z,0.60
2019-03-06T11:05:30.310Z,0.50
2019-03-06T11:06:20.926Z,0.70
2019-03-06T11:07:10.682Z,0.60
2019-03-06T11:08:00.402Z,0.60
2019-03-06T11:08:50.675Z,0.50
2019-03-06T11:09:41.356Z,0.60
2019-03-06T11:10:32.747Z,0.80
2019-03-06T11:11:22.632Z,0.80
2019-03-06T11:12:12.463Z,0.50
2019-03-06T11:13:03.585Z,0.60
2019-03-06T11:13:53.228Z,0.93
2019-03-06T11:14:44.537Z,0.70
2019-03-06T11:15:32.886Z,0.67
2019-03-06T11:16:22.932Z,0.60
2019-03-06T11:17:12.752Z,0.50
2019-03-06T11:18:02.341Z,0.60
2019-03-06T11:18:51.872Z,0.70
2019-03-06T11:19:41.510Z,0.60
2019-03-06T11:20:31.102Z,0.60
2019-03-06T11:21:21.758Z,0.77
2019-03-06T11:22:11.579Z,0.70
2019-03-06T11:23:01.737Z,0.60
2019-03-06T11:23:52.752Z,0.60
2019-03-06T11:24:42.777Z,0.60
2019-03-06T11:25:32.775Z,0.63
2019-03-06T11:26:23.178Z,0.70
2019-03-06T11:27:12.793Z,0.60
2019-03-06T11:28:03.644Z,0.73
2019-03-06T11:28:53.646Z,0.70
2019-03-06T11:29:43.386Z,0.70
2019-03-06T11:30:34.689Z,0.70
2019-03-06T11:31:24.636Z,0.60
2019-03-06T11:32:14.521Z,0.63
2019-03-06T11:33:04.818Z,0.70
2019-03-06T11:33:54.880Z,0.70
2019-03-06T11:34:44.606Z,0.70
2019-03-06T11:35:34.659Z,0.70
2019-03-06T11:36:24.601Z,1.73
2019-03-06T11:37:14.358Z,0.97
2019-03-06T11:38:04.363Z,0.73
2019-03-06T11:38:54.164Z,0.70
2019-03-06T11:39:44.875Z,0.70
2019-03-06T11:40:36.028Z,0.60
2019-03-06T11:41:27.162Z,0.80
2019-03-06T11:42:17.962Z,0.60
2019-03-06T11:43:07.595Z,0.53
2019-03-06T11:43:58.180Z,0.80
2019-03-06T11:44:48.267Z,0.83
2019-03-06T11:45:38.574Z,0.60
2019-03-06T11:46:29.027Z,0.70
2019-03-06T11:47:18.434Z,0.67
2019-03-06T11:48:08.274Z,0.60
2019-03-06T11:48:58.233Z,0.57
2019-03-06T11:49:49.056Z,0.70
2019-03-06T11:50:41.116Z,0.70
2019-03-06T11:51:28.219Z,0.70
2019-03-06T11:52:18.768Z,0.83
2019-03-06T11:53:08.954Z,0.77
2019-03-06T11:53:59.478Z,0.73
2019-03-06T11:54:49.211Z,0.70
2019-03-06T11:55:39.141Z,0.90
2019-03-06T11:56:29.696Z,0.70
2019-03-06T11:57:19.676Z,0.70
2019-03-06T11:58:09.902Z,0.60
2019-03-06T11:58:59.620Z,0.93
2019-03-06T11:59:49.836Z,0.70
2019-03-06T12:00:40.997Z,0.70
2019-03-06T12:01:30.960Z,0.80
2019-03-06T12:02:20.425Z,0.80
2019-03-06T12:03:10.325Z,0.70
2019-03-06T12:03:59.947Z,0.90
2019-03-06T12:04:49.710Z,0.90
2019-03-06T12:05:39.939Z,0.90
2019-03-06T12:06:29.483Z,0.90
2019-03-06T12:07:19.372Z,0.97